sensor_id;sensor_type;location;lat;lon;timestamp;P1;durP1;ratioP1;P2;durP2;ratioP2
12650;SDS011;6390;49.400;8.670;2023-06-22T03:32:31;4.07;;;3.72;;
12650;SDS011;6390;49.400;8.670;2023-06-22T03:34:57;4.63;;;4.22;;
12650;SDS011;6390;49.400;8.670;2023-06-22T03:37:24;4.55;;;4.15;;
12650;SDS011;6390;49.400;8.670;2023-06-22T03:39:51;4.35;;;3.95;;
12650;SDS011;6390;49.400;8.670;2023-06-22T03:42:18;4.30;;;3.90;;
12650;SDS011;6390;49.400;8.670;2023-06-22T03:44:44;4.88;;;4.47;;
12650;SDS011;6390;49.400;8.670;2023-06-22T03:47:10;6.50;;;3.95;;
12650;SDS011;6390;49.400;8.670;2023-06-22T03:49:36;5.13;;;4.50;;
12650;SDS011;6390;49.400;8.670;2023-06-22T03:52:03;5.13;;;4.63;;
12650;SDS011;6390;49.400;8.670;2023-06-22T03:54:30;4.18;;;3.78;;
12650;SDS011;6390;49.400;8.670;2023-06-22T03:58:37;4.40;;;4.00;;
12650;SDS011;6390;49.400;8.670;2023-06-22T04:01:07;4.40;;;4.00;;
12650;SDS011;6390;49.400;8.670;2023-06-22T04:03:36;4.75;;;4.35;;
12650;SDS011;6390;49.400;8.670;2023-06-22T04:06:03;4.35;;;3.95;;
12650;SDS011;6390;49.400;8.670;2023-06-22T04:08:29;5.80;;;5.18;;
12650;SDS011;6390;49.400;8.670;2023-06-22T04:10:55;4.88;;;4.13;;
12650;SDS011;6390;49.400;8.670;2023-06-22T04:13:22;4.45;;;4.07;;
12650;SDS011;6390;49.400;8.670;2023-06-22T04:15:48;4.80;;;4.38;;
12650;SDS011;6390;49.400;8.670;2023-06-22T04:18:14;4.90;;;4.50;;
12650;SDS011;6390;49.400;8.670;2023-06-22T04:20:40;4.75;;;4.13;;
12650;SDS011;6390;49.400;8.670;2023-06-22T04:23:06;4.80;;;4.35;;
12650;SDS011;6390;49.400;8.670;2023-06-22T04:25:33;5.50;;;4.45;;
12650;SDS011;6390;49.400;8.670;2023-06-22T04:27:59;5.50;;;4.70;;
12650;SDS011;6390;49.400;8.670;2023-06-22T04:30:28;4.03;;;3.72;;
12650;SDS011;6390;49.400;8.670;2023-06-22T04:32:56;4.75;;;4.35;;
12650;SDS011;6390;49.400;8.670;2023-06-22T04:35:25;4.70;;;4.22;;
12650;SDS011;6390;49.400;8.670;2023-06-22T04:37:57;4.60;;;4.18;;
12650;SDS011;6390;49.400;8.670;2023-06-22T04:40:24;4.90;;;4.50;;
12650;SDS011;6390;49.400;8.670;2023-06-22T04:42:50;5.47;;;4.05;;
12650;SDS011;6390;49.400;8.670;2023-06-22T04:45:19;4.13;;;3.78;;
12650;SDS011;6390;49.400;8.670;2023-06-22T04:47:46;4.05;;;3.72;;
12650;SDS011;6390;49.400;8.670;2023-06-22T04:50:12;4.85;;;4.07;;
12650;SDS011;6390;49.400;8.670;2023-06-22T04:52:38;4.38;;;4.00;;
12650;SDS011;6390;49.400;8.670;2023-06-22T04:55:05;4.07;;;3.78;;
12650;SDS011;6390;49.400;8.670;2023-06-22T04:57:31;4.53;;;4.00;;
12650;SDS011;6390;49.400;8.670;2023-06-22T04:59:59;6.10;;;3.70;;
12650;SDS011;6390;49.400;8.670;2023-06-22T05:02:37;4.10;;;3.70;;
12650;SDS011;6390;49.400;8.670;2023-06-22T05:05:06;4.30;;;3.90;;
12650;SDS011;6390;49.400;8.670;2023-06-22T05:07:35;3.92;;;3.53;;
12650;SDS011;6390;49.400;8.670;2023-06-22T05:10:02;4.03;;;3.72;;
12650;SDS011;6390;49.400;8.670;2023-06-22T05:12:29;4.20;;;3.80;;
12650;SDS011;6390;49.400;8.670;2023-06-22T05:14:56;3.50;;;3.20;;
12650;SDS011;6390;49.400;8.670;2023-06-22T05:17:22;4.75;;;4.00;;
12650;SDS011;6390;49.400;8.670;2023-06-22T05:19:49;4.20;;;3.80;;
12650;SDS011;6390;49.400;8.670;2023-06-22T05:22:15;4.00;;;3.70;;
12650;SDS011;6390;49.400;8.670;2023-06-22T05:24:42;4.57;;;4.18;;
12650;SDS011;6390;49.400;8.670;2023-06-22T05:27:08;4.40;;;4.00;;
12650;SDS011;6390;49.400;8.670;2023-06-22T05:29:36;4.03;;;3.72;;
12650;SDS011;6390;49.400;8.670;2023-06-22T05:32:03;4.32;;;3.92;;
12650;SDS011;6390;49.400;8.670;2023-06-22T05:34:29;4.07;;;3.70;;
12650;SDS011;6390;49.400;8.670;2023-06-22T05:36:55;4.45;;;4.05;;
12650;SDS011;6390;49.400;8.670;2023-06-22T05:39:23;4.93;;;4.07;;
12650;SDS011;6390;49.400;8.670;2023-06-22T05:41:50;3.83;;;3.53;;
12650;SDS011;6390;49.400;8.670;2023-06-22T05:44:16;5.70;;;4.25;;
12650;SDS011;6390;49.400;8.670;2023-06-22T05:46:43;3.80;;;3.50;;
12650;SDS011;6390;49.400;8.670;2023-06-22T05:49:11;4.13;;;3.72;;
12650;SDS011;6390;49.400;8.670;2023-06-22T05:51:38;3.65;;;3.35;;
12650;SDS011;6390;49.400;8.670;2023-06-22T05:54:04;3.47;;;3.17;;
12650;SDS011;6390;49.400;8.670;2023-06-22T05:56:30;3.50;;;3.22;;
12650;SDS011;6390;49.400;8.670;2023-06-22T05:58:57;3.53;;;3.20;;
12650;SDS011;6390;49.400;8.670;2023-06-22T06:01:23;3.53;;;3.03;;
12650;SDS011;6390;49.400;8.670;2023-06-22T06:03:50;3.47;;;3.17;;
12650;SDS011;6390;49.400;8.670;2023-06-22T06:06:18;4.00;;;3.30;;
12650;SDS011;6390;49.400;8.670;2023-06-22T06:08:53;3.00;;;2.70;;
12650;SDS011;6390;49.400;8.670;2023-06-22T06:11:20;3.58;;;3.28;;
12650;SDS011;6390;49.400;8.670;2023-06-22T06:13:47;3.95;;;3.20;;
12650;SDS011;6390;49.400;8.670;2023-06-22T06:16:13;3.55;;;3.25;;
12650;SDS011;6390;49.400;8.670;2023-06-22T06:18:39;3.10;;;2.85;;
12650;SDS011;6390;49.400;8.670;2023-06-22T06:21:05;3.53;;;3.30;;
12650;SDS011;6390;49.400;8.670;2023-06-22T06:23:31;3.45;;;3.17;;
12650;SDS011;6390;49.400;8.670;2023-06-22T06:25:57;3.47;;;3.10;;
12650;SDS011;6390;49.400;8.670;2023-06-22T06:28:24;3.50;;;3.20;;
12650;SDS011;6390;49.400;8.670;2023-06-22T06:30:50;3.25;;;2.95;;
12650;SDS011;6390;49.400;8.670;2023-06-22T06:33:17;3.42;;;3.03;;
12650;SDS011;6390;49.400;8.670;2023-06-22T06:35:43;3.33;;;3.13;;
12650;SDS011;6390;49.400;8.670;2023-06-22T06:38:09;2.88;;;2.67;;
12650;SDS011;6390;49.400;8.670;2023-06-22T06:40:36;3.20;;;2.90;;
12650;SDS011;6390;49.400;8.670;2023-06-22T06:43:02;3.20;;;3.00;;
12650;SDS011;6390;49.400;8.670;2023-06-22T06:45:28;3.05;;;2.63;;
12650;SDS011;6390;49.400;8.670;2023-06-22T06:47:56;3.55;;;2.75;;
12650;SDS011;6390;49.400;8.670;2023-06-22T06:50:22;3.05;;;2.75;;
12650;SDS011;6390;49.400;8.670;2023-06-22T06:52:48;2.85;;;2.65;;
12650;SDS011;6390;49.400;8.670;2023-06-22T06:55:17;2.75;;;2.55;;
12650;SDS011;6390;49.400;8.670;2023-06-22T06:57:44;2.60;;;2.40;;
12650;SDS011;6390;49.400;8.670;2023-06-22T07:00:13;2.95;;;2.72;;
12650;SDS011;6390;49.400;8.670;2023-06-22T07:02:41;2.97;;;2.78;;
12650;SDS011;6390;49.400;8.670;2023-06-22T07:05:09;2.67;;;2.47;;
12650;SDS011;6390;49.400;8.670;2023-06-22T07:07:36;2.85;;;2.65;;
12650;SDS011;6390;49.400;8.670;2023-06-22T07:10:02;2.90;;;2.70;;
12650;SDS011;6390;49.400;8.670;2023-06-22T07:12:30;2.90;;;2.70;;
12650;SDS011;6390;49.400;8.670;2023-06-22T07:15:03;3.53;;;2.50;;
12650;SDS011;6390;49.400;8.670;2023-06-22T07:17:33;3.08;;;2.60;;
12650;SDS011;6390;49.400;8.670;2023-06-22T07:20:00;3.13;;;2.38;;
12650;SDS011;6390;49.400;8.670;2023-06-22T07:22:32;3.03;;;2.70;;
12650;SDS011;6390;49.400;8.670;2023-06-22T07:24:58;4.30;;;2.70;;
12650;SDS011;6390;49.400;8.670;2023-06-22T07:27:24;2.72;;;2.53;;
12650;SDS011;6390;49.400;8.670;2023-06-22T07:29:50;2.67;;;2.47;;
12650;SDS011;6390;49.400;8.670;2023-06-22T07:32:17;2.67;;;2.47;;
12650;SDS011;6390;49.400;8.670;2023-06-22T07:34:43;3.13;;;2.70;;
12650;SDS011;6390;49.400;8.670;2023-06-22T07:37:09;2.58;;;2.38;;
12650;SDS011;6390;49.400;8.670;2023-06-22T07:39:35;2.83;;;2.63;;
12650;SDS011;6390;49.400;8.670;2023-06-22T07:42:02;2.65;;;2.45;;
12650;SDS011;6390;49.400;8.670;2023-06-22T07:44:29;3.95;;;2.50;;
12650;SDS011;6390;49.400;8.670;2023-06-22T07:46:55;2.70;;;2.50;;
12650;SDS011;6390;49.400;8.670;2023-06-22T07:49:21;3.05;;;2.80;;
12650;SDS011;6390;49.400;8.670;2023-06-22T07:51:47;2.60;;;2.40;;
12650;SDS011;6390;49.400;8.670;2023-06-22T07:54:13;2.30;;;2.10;;
12650;SDS011;6390;49.400;8.670;2023-06-22T07:56:40;3.22;;;2.30;;
12650;SDS011;6390;49.400;8.670;2023-06-22T07:59:06;2.55;;;2.22;;
12650;SDS011;6390;49.400;8.670;2023-06-22T08:01:32;2.65;;;2.45;;
12650;SDS011;6390;49.400;8.670;2023-06-22T08:03:58;3.50;;;2.60;;
12650;SDS011;6390;49.400;8.670;2023-06-22T08:06:25;2.20;;;2.00;;
12650;SDS011;6390;49.400;8.670;2023-06-22T08:08:51;2.65;;;2.38;;
12650;SDS011;6390;49.400;8.670;2023-06-22T08:11:18;2.30;;;2.05;;
12650;SDS011;6390;49.400;8.670;2023-06-22T08:13:47;2.30;;;2.10;;
12650;SDS011;6390;49.400;8.670;2023-06-22T08:16:13;2.47;;;2.28;;
12650;SDS011;6390;49.400;8.670;2023-06-22T08:18:39;2.85;;;2.40;;
12650;SDS011;6390;49.400;8.670;2023-06-22T08:21:06;2.30;;;2.10;;
12650;SDS011;6390;49.400;8.670;2023-06-22T08:23:32;2.40;;;2.20;;
12650;SDS011;6390;49.400;8.670;2023-06-22T08:25:58;2.20;;;2.10;;
12650;SDS011;6390;49.400;8.670;2023-06-22T08:28:24;2.33;;;2.13;;
12650;SDS011;6390;49.400;8.670;2023-06-22T08:30:50;2.38;;;2.17;;
12650;SDS011;6390;49.400;8.670;2023-06-22T08:33:16;2.20;;;2.00;;
12650;SDS011;6390;49.400;8.670;2023-06-22T08:35:42;2.33;;;2.13;;
12650;SDS011;6390;49.400;8.670;2023-06-22T08:38:08;3.90;;;2.30;;
12650;SDS011;6390;49.400;8.670;2023-06-22T08:40:35;2.25;;;2.13;;
12650;SDS011;6390;49.400;8.670;2023-06-22T08:43:01;2.20;;;2.00;;
12650;SDS011;6390;49.400;8.670;2023-06-22T08:45:27;2.40;;;2.10;;
12650;SDS011;6390;49.400;8.670;2023-06-22T08:47:53;2.25;;;2.05;;
12650;SDS011;6390;49.400;8.670;2023-06-22T08:50:20;2.50;;;2.30;;
12650;SDS011;6390;49.400;8.670;2023-06-22T08:52:46;5.15;;;2.17;;
12650;SDS011;6390;49.400;8.670;2023-06-22T08:55:12;2.45;;;2.10;;
12650;SDS011;6390;49.400;8.670;2023-06-22T08:57:39;9.45;;;2.00;;
12650;SDS011;6390;49.400;8.670;2023-06-22T09:00:06;2.67;;;2.05;;
12650;SDS011;6390;49.400;8.670;2023-06-22T09:02:44;6.05;;;2.30;;
12650;SDS011;6390;49.400;8.670;2023-06-22T09:05:11;2.20;;;2.00;;
12650;SDS011;6390;49.400;8.670;2023-06-22T09:07:37;2.30;;;2.10;;
12650;SDS011;6390;49.400;8.670;2023-06-22T09:10:03;2.65;;;1.95;;
12650;SDS011;6390;49.400;8.670;2023-06-22T09:12:30;2.30;;;2.10;;
12650;SDS011;6390;49.400;8.670;2023-06-22T09:14:57;2.28;;;2.10;;
12650;SDS011;6390;49.400;8.670;2023-06-22T09:17:27;2.10;;;1.92;;
12650;SDS011;6390;49.400;8.670;2023-06-22T09:19:53;2.30;;;2.10;;
12650;SDS011;6390;49.400;8.670;2023-06-22T09:22:20;2.40;;;2.20;;
12650;SDS011;6390;49.400;8.670;2023-06-22T09:24:46;2.10;;;1.90;;
12650;SDS011;6390;49.400;8.670;2023-06-22T09:27:12;2.13;;;1.92;;
12650;SDS011;6390;49.400;8.670;2023-06-22T09:29:38;2.63;;;2.30;;
12650;SDS011;6390;49.400;8.670;2023-06-22T09:32:04;2.28;;;2.08;;
12650;SDS011;6390;49.400;8.670;2023-06-22T09:34:31;5.45;;;2.40;;
12650;SDS011;6390;49.400;8.670;2023-06-22T09:36:57;4.38;;;2.38;;
12650;SDS011;6390;49.400;8.670;2023-06-22T09:39:25;5.78;;;2.60;;
12650;SDS011;6390;49.400;8.670;2023-06-22T09:41:51;3.33;;;2.15;;
12650;SDS011;6390;49.400;8.670;2023-06-22T09:44:17;4.28;;;2.40;;
12650;SDS011;6390;49.400;8.670;2023-06-22T09:46:43;3.70;;;2.45;;
12650;SDS011;6390;49.400;8.670;2023-06-22T09:49:10;5.32;;;2.17;;
12650;SDS011;6390;49.400;8.670;2023-06-22T09:51:36;2.45;;;2.13;;
12650;SDS011;6390;49.400;8.670;2023-06-22T09:54:02;3.13;;;2.20;;
12650;SDS011;6390;49.400;8.670;2023-06-22T09:56:28;2.40;;;2.20;;
12650;SDS011;6390;49.400;8.670;2023-06-22T09:58:55;38.00;;;4.57;;
12650;SDS011;6390;49.400;8.670;2023-06-22T10:01:21;2.78;;;2.17;;
12650;SDS011;6390;49.400;8.670;2023-06-22T10:03:48;4.72;;;2.20;;
12650;SDS011;6390;49.400;8.670;2023-06-22T10:06:14;3.67;;;1.88;;
12650;SDS011;6390;49.400;8.670;2023-06-22T10:08:40;4.30;;;2.10;;
12650;SDS011;6390;49.400;8.670;2023-06-22T10:11:06;5.97;;;2.00;;
12650;SDS011;6390;49.400;8.670;2023-06-22T10:13:33;10.25;;;3.03;;
12650;SDS011;6390;49.400;8.670;2023-06-22T10:15:59;13.95;;;2.33;;
12650;SDS011;6390;49.400;8.670;2023-06-22T10:18:25;2.58;;;2.05;;
12650;SDS011;6390;49.400;8.670;2023-06-22T10:20:51;4.85;;;2.40;;
12650;SDS011;6390;49.400;8.670;2023-06-22T10:23:18;2.88;;;2.58;;
12650;SDS011;6390;49.400;8.670;2023-06-22T10:25:44;2.72;;;2.25;;
12650;SDS011;6390;49.400;8.670;2023-06-22T10:28:11;2.30;;;2.10;;
12650;SDS011;6390;49.400;8.670;2023-06-22T10:30:37;2.47;;;2.00;;
12650;SDS011;6390;49.400;8.670;2023-06-22T10:33:07;3.22;;;2.20;;
12650;SDS011;6390;49.400;8.670;2023-06-22T10:35:34;3.03;;;2.40;;
12650;SDS011;6390;49.400;8.670;2023-06-22T10:38:02;4.63;;;2.13;;
12650;SDS011;6390;49.400;8.670;2023-06-22T10:40:29;4.93;;;2.28;;
12650;SDS011;6390;49.400;8.670;2023-06-22T10:42:55;8.32;;;2.53;;
12650;SDS011;6390;49.400;8.670;2023-06-22T10:45:21;3.65;;;2.05;;
12650;SDS011;6390;49.400;8.670;2023-06-22T10:47:48;3.67;;;2.35;;
12650;SDS011;6390;49.400;8.670;2023-06-22T10:50:14;3.13;;;2.20;;
12650;SDS011;6390;49.400;8.670;2023-06-22T10:52:40;5.43;;;3.03;;
12650;SDS011;6390;49.400;8.670;2023-06-22T10:55:07;3.70;;;2.05;;
12650;SDS011;6390;49.400;8.670;2023-06-22T10:57:34;3.47;;;2.28;;
12650;SDS011;6390;49.400;8.670;2023-06-22T11:00:01;3.83;;;2.17;;
12650;SDS011;6390;49.400;8.670;2023-06-22T11:02:30;2.80;;;2.05;;
12650;SDS011;6390;49.400;8.670;2023-06-22T11:04:57;2.65;;;1.88;;
12650;SDS011;6390;49.400;8.670;2023-06-22T11:07:25;3.42;;;2.13;;
12650;SDS011;6390;49.400;8.670;2023-06-22T11:09:53;3.78;;;1.88;;
12650;SDS011;6390;49.400;8.670;2023-06-22T11:12:20;5.13;;;2.13;;
12650;SDS011;6390;49.400;8.670;2023-06-22T11:14:46;3.60;;;2.50;;
12650;SDS011;6390;49.400;8.670;2023-06-22T11:17:12;2.90;;;2.55;;
12650;SDS011;6390;49.400;8.670;2023-06-22T11:19:38;2.50;;;2.10;;
12650;SDS011;6390;49.400;8.670;2023-06-22T11:22:04;4.35;;;2.47;;
12650;SDS011;6390;49.400;8.670;2023-06-22T11:24:31;2.60;;;2.22;;
12650;SDS011;6390;49.400;8.670;2023-06-22T11:26:57;3.08;;;2.22;;
12650;SDS011;6390;49.400;8.670;2023-06-22T11:29:23;4.05;;;2.33;;
12650;SDS011;6390;49.400;8.670;2023-06-22T11:31:49;2.90;;;2.33;;
12650;SDS011;6390;49.400;8.670;2023-06-22T11:34:15;9.75;;;2.53;;
12650;SDS011;6390;49.400;8.670;2023-06-22T11:36:42;9.50;;;2.90;;
12650;SDS011;6390;49.400;8.670;2023-06-22T11:39:09;3.08;;;2.30;;
12650;SDS011;6390;49.400;8.670;2023-06-22T11:41:35;2.55;;;2.35;;
12650;SDS011;6390;49.400;8.670;2023-06-22T11:44:01;2.88;;;2.42;;
12650;SDS011;6390;49.400;8.670;2023-06-22T11:46:29;2.97;;;2.30;;
12650;SDS011;6390;49.400;8.670;2023-06-22T11:48:56;2.58;;;2.38;;
12650;SDS011;6390;49.400;8.670;2023-06-22T11:51:22;3.20;;;2.08;;
12650;SDS011;6390;49.400;8.670;2023-06-22T11:53:49;2.83;;;2.58;;
12650;SDS011;6390;49.400;8.670;2023-06-22T11:56:15;3.20;;;2.35;;
12650;SDS011;6390;49.400;8.670;2023-06-22T11:58:41;3.47;;;2.28;;
12650;SDS011;6390;49.400;8.670;2023-06-22T12:01:07;3.88;;;2.30;;
12650;SDS011;6390;49.400;8.670;2023-06-22T12:03:33;3.13;;;2.67;;
12650;SDS011;6390;49.400;8.670;2023-06-22T12:05:59;3.65;;;2.42;;
12650;SDS011;6390;49.400;8.670;2023-06-22T12:08:25;4.20;;;2.40;;
12650;SDS011;6390;49.400;8.670;2023-06-22T12:10:52;11.60;;;2.78;;
12650;SDS011;6390;49.400;8.670;2023-06-22T12:13:19;4.88;;;2.50;;
12650;SDS011;6390;49.400;8.670;2023-06-22T12:15:45;3.10;;;2.28;;
12650;SDS011;6390;49.400;8.670;2023-06-22T12:18:11;4.07;;;2.35;;
12650;SDS011;6390;49.400;8.670;2023-06-22T12:20:39;4.20;;;2.28;;
12650;SDS011;6390;49.400;8.670;2023-06-22T12:23:05;6.03;;;2.40;;
12650;SDS011;6390;49.400;8.670;2023-06-22T12:25:31;2.70;;;2.42;;
12650;SDS011;6390;49.400;8.670;2023-06-22T12:27:57;3.42;;;2.63;;
12650;SDS011;6390;49.400;8.670;2023-06-22T12:30:23;7.72;;;2.40;;
12650;SDS011;6390;49.400;8.670;2023-06-22T12:32:49;3.88;;;2.38;;
12650;SDS011;6390;49.400;8.670;2023-06-22T12:35:16;11.48;;;3.05;;
12650;SDS011;6390;49.400;8.670;2023-06-22T12:37:42;16.58;;;3.47;;
12650;SDS011;6390;49.400;8.670;2023-06-22T12:40:09;4.78;;;2.42;;
12650;SDS011;6390;49.400;8.670;2023-06-22T12:42:36;3.78;;;2.22;;
12650;SDS011;6390;49.400;8.670;2023-06-22T12:45:02;9.05;;;2.72;;
12650;SDS011;6390;49.400;8.670;2023-06-22T12:47:28;6.25;;;2.55;;
12650;SDS011;6390;49.400;8.670;2023-06-22T12:49:55;6.13;;;2.30;;
12650;SDS011;6390;49.400;8.670;2023-06-22T12:52:21;6.20;;;2.35;;
12650;SDS011;6390;49.400;8.670;2023-06-22T12:54:47;2.72;;;2.38;;
12650;SDS011;6390;49.400;8.670;2023-06-22T12:57:13;10.00;;;2.63;;
12650;SDS011;6390;49.400;8.670;2023-06-22T12:59:39;3.65;;;2.30;;
12650;SDS011;6390;49.400;8.670;2023-06-22T13:02:05;2.55;;;2.33;;
12650;SDS011;6390;49.400;8.670;2023-06-22T13:04:32;8.52;;;2.65;;
12650;SDS011;6390;49.400;8.670;2023-06-22T13:06:58;14.68;;;3.13;;
12650;SDS011;6390;49.400;8.670;2023-06-22T13:09:24;4.57;;;2.63;;
12650;SDS011;6390;49.400;8.670;2023-06-22T13:11:50;3.83;;;2.60;;
12650;SDS011;6390;49.400;8.670;2023-06-22T13:14:17;2.42;;;2.22;;
12650;SDS011;6390;49.400;8.670;2023-06-22T13:16:43;65.85;;;6.30;;
12650;SDS011;6390;49.400;8.670;2023-06-22T13:19:09;13.98;;;3.00;;
12650;SDS011;6390;49.400;8.670;2023-06-22T13:21:35;4.22;;;2.47;;
12650;SDS011;6390;49.400;8.670;2023-06-22T13:24:02;3.58;;;2.25;;
12650;SDS011;6390;49.400;8.670;2023-06-22T13:26:28;4.25;;;2.35;;
12650;SDS011;6390;49.400;8.670;2023-06-22T13:28:55;4.35;;;2.35;;
12650;SDS011;6390;49.400;8.670;2023-06-22T13:31:21;5.97;;;2.55;;
12650;SDS011;6390;49.400;8.670;2023-06-22T13:33:47;5.10;;;2.38;;
12650;SDS011;6390;49.400;8.670;2023-06-22T13:36:13;5.72;;;2.70;;
12650;SDS011;6390;49.400;8.670;2023-06-22T13:38:40;4.72;;;2.70;;
12650;SDS011;6390;49.400;8.670;2023-06-22T13:41:06;3.40;;;2.40;;
12650;SDS011;6390;49.400;8.670;2023-06-22T13:43:32;5.78;;;2.88;;
12650;SDS011;6390;49.400;8.670;2023-06-22T13:45:58;3.17;;;2.13;;
12650;SDS011;6390;49.400;8.670;2023-06-22T13:48:24;3.45;;;2.38;;
12650;SDS011;6390;49.400;8.670;2023-06-22T13:50:51;2.72;;;2.20;;
12650;SDS011;6390;49.400;8.670;2023-06-22T13:53:17;3.97;;;2.83;;
12650;SDS011;6390;49.400;8.670;2023-06-22T13:55:44;3.35;;;2.53;;
12650;SDS011;6390;49.400;8.670;2023-06-22T13:58:10;4.00;;;2.15;;
12650;SDS011;6390;49.400;8.670;2023-06-22T14:00:36;2.40;;;2.20;;
12650;SDS011;6390;49.400;8.670;2023-06-22T14:03:02;3.55;;;2.55;;
12650;SDS011;6390;49.400;8.670;2023-06-22T14:05:28;2.58;;;2.08;;
12650;SDS011;6390;49.400;8.670;2023-06-22T14:07:54;3.05;;;2.20;;
12650;SDS011;6390;49.400;8.670;2023-06-22T14:10:21;2.83;;;2.40;;
12650;SDS011;6390;49.400;8.670;2023-06-22T14:12:47;3.85;;;2.25;;
12650;SDS011;6390;49.400;8.670;2023-06-22T14:15:13;4.80;;;2.60;;
12650;SDS011;6390;49.400;8.670;2023-06-22T14:17:39;5.47;;;2.40;;
12650;SDS011;6390;49.400;8.670;2023-06-22T14:20:05;3.65;;;2.40;;
12650;SDS011;6390;49.400;8.670;2023-06-22T14:22:33;3.92;;;2.80;;
12650;SDS011;6390;49.400;8.670;2023-06-22T14:25:00;2.85;;;2.20;;
12650;SDS011;6390;49.400;8.670;2023-06-22T14:27:26;4.65;;;2.67;;
12650;SDS011;6390;49.400;8.670;2023-06-22T14:29:53;3.78;;;2.78;;
12650;SDS011;6390;49.400;8.670;2023-06-22T14:32:19;4.70;;;2.42;;
12650;SDS011;6390;49.400;8.670;2023-06-22T14:34:45;4.90;;;2.45;;
12650;SDS011;6390;49.400;8.670;2023-06-22T14:37:11;4.18;;;2.67;;
12650;SDS011;6390;49.400;8.670;2023-06-22T14:39:38;3.97;;;2.58;;
12650;SDS011;6390;49.400;8.670;2023-06-22T14:42:04;3.80;;;2.75;;
12650;SDS011;6390;49.400;8.670;2023-06-22T14:44:31;4.53;;;2.60;;
12650;SDS011;6390;49.400;8.670;2023-06-22T14:46:58;3.92;;;2.78;;
12650;SDS011;6390;49.400;8.670;2023-06-22T14:49:24;2.72;;;2.45;;
12650;SDS011;6390;49.400;8.670;2023-06-22T14:51:51;5.25;;;2.67;;
12650;SDS011;6390;49.400;8.670;2023-06-22T14:54:17;5.65;;;2.40;;
12650;SDS011;6390;49.400;8.670;2023-06-22T14:56:43;5.07;;;2.72;;
12650;SDS011;6390;49.400;8.670;2023-06-22T14:59:09;3.22;;;2.60;;
12650;SDS011;6390;49.400;8.670;2023-06-22T15:01:35;3.22;;;2.83;;
12650;SDS011;6390;49.400;8.670;2023-06-22T15:04:01;3.67;;;2.65;;
12650;SDS011;6390;49.400;8.670;2023-06-22T15:06:28;3.42;;;2.90;;
12650;SDS011;6390;49.400;8.670;2023-06-22T15:08:54;3.38;;;2.60;;
12650;SDS011;6390;49.400;8.670;2023-06-22T15:11:20;3.00;;;2.65;;
12650;SDS011;6390;49.400;8.670;2023-06-22T15:13:46;3.42;;;2.72;;
12650;SDS011;6390;49.400;8.670;2023-06-22T15:16:12;4.85;;;2.95;;
12650;SDS011;6390;49.400;8.670;2023-06-22T15:18:38;3.28;;;2.72;;
12650;SDS011;6390;49.400;8.670;2023-06-22T15:21:06;4.07;;;2.85;;
12650;SDS011;6390;49.400;8.670;2023-06-22T15:23:32;3.80;;;2.92;;
12650;SDS011;6390;49.400;8.670;2023-06-22T15:26:00;3.67;;;2.60;;
12650;SDS011;6390;49.400;8.670;2023-06-22T15:28:30;3.08;;;2.70;;
12650;SDS011;6390;49.400;8.670;2023-06-22T15:30:57;5.47;;;2.70;;
12650;SDS011;6390;49.400;8.670;2023-06-22T15:33:23;3.28;;;2.75;;
12650;SDS011;6390;49.400;8.670;2023-06-22T15:35:50;3.15;;;2.80;;
12650;SDS011;6390;49.400;8.670;2023-06-22T15:38:17;3.90;;;2.85;;
12650;SDS011;6390;49.400;8.670;2023-06-22T15:40:43;3.28;;;2.70;;
12650;SDS011;6390;49.400;8.670;2023-06-22T15:43:10;4.25;;;3.22;;
12650;SDS011;6390;49.400;8.670;2023-06-22T15:45:38;7.60;;;2.60;;
12650;SDS011;6390;49.400;8.670;2023-06-22T15:48:04;2.97;;;2.60;;
12650;SDS011;6390;49.400;8.670;2023-06-22T15:50:30;3.85;;;3.13;;
12650;SDS011;6390;49.400;8.670;2023-06-22T15:52:56;3.63;;;2.67;;
12650;SDS011;6390;49.400;8.670;2023-06-22T15:55:22;4.57;;;2.83;;
12650;SDS011;6390;49.400;8.670;2023-06-22T15:57:48;4.03;;;2.75;;
12650;SDS011;6390;49.400;8.670;2023-06-22T16:00:18;5.90;;;3.03;;
12650;SDS011;6390;49.400;8.670;2023-06-22T16:02:44;3.53;;;2.92;;
12650;SDS011;6390;49.400;8.670;2023-06-22T16:05:11;3.30;;;2.83;;
12650;SDS011;6390;49.400;8.670;2023-06-22T16:07:38;5.13;;;2.72;;
12650;SDS011;6390;49.400;8.670;2023-06-22T16:10:04;6.97;;;2.67;;
12650;SDS011;6390;49.400;8.670;2023-06-22T16:12:32;2.92;;;2.50;;
12650;SDS011;6390;49.400;8.670;2023-06-22T16:15:00;3.85;;;2.70;;
12650;SDS011;6390;49.400;8.670;2023-06-22T16:17:27;5.05;;;2.63;;
12650;SDS011;6390;49.400;8.670;2023-06-22T16:19:53;3.13;;;2.78;;
12650;SDS011;6390;49.400;8.670;2023-06-22T16:22:23;5.30;;;3.03;;
12650;SDS011;6390;49.400;8.670;2023-06-22T16:24:50;7.80;;;2.88;;
12650;SDS011;6390;49.400;8.670;2023-06-22T16:27:17;2.42;;;2.22;;
12650;SDS011;6390;49.400;8.670;2023-06-22T16:29:43;6.45;;;2.90;;
12650;SDS011;6390;49.400;8.670;2023-06-22T16:32:10;4.30;;;2.70;;
12650;SDS011;6390;49.400;8.670;2023-06-22T16:34:36;6.47;;;2.67;;
12650;SDS011;6390;49.400;8.670;2023-06-22T16:37:03;6.00;;;3.00;;
12650;SDS011;6390;49.400;8.670;2023-06-22T16:39:29;4.35;;;2.85;;
12650;SDS011;6390;49.400;8.670;2023-06-22T16:41:55;4.72;;;2.60;;
12650;SDS011;6390;49.400;8.670;2023-06-22T16:44:21;3.92;;;2.85;;
12650;SDS011;6390;49.400;8.670;2023-06-22T16:46:47;6.72;;;2.90;;
12650;SDS011;6390;49.400;8.670;2023-06-22T16:49:13;4.47;;;3.00;;
12650;SDS011;6390;49.400;8.670;2023-06-22T16:51:39;4.65;;;2.88;;
12650;SDS011;6390;49.400;8.670;2023-06-22T16:54:05;4.45;;;2.45;;
12650;SDS011;6390;49.400;8.670;2023-06-22T16:56:32;4.88;;;2.25;;
12650;SDS011;6390;49.400;8.670;2023-06-22T16:58:58;2.83;;;1.80;;
12650;SDS011;6390;49.400;8.670;2023-06-22T17:01:25;4.20;;;1.90;;
12650;SDS011;6390;49.400;8.670;2023-06-22T17:03:56;2.42;;;1.83;;
12650;SDS011;6390;49.400;8.670;2023-06-22T17:06:35;3.20;;;1.90;;
12650;SDS011;6390;49.400;8.670;2023-06-22T17:09:04;3.92;;;2.95;;
12650;SDS011;6390;49.400;8.670;2023-06-22T17:11:30;3.72;;;2.58;;
12650;SDS011;6390;49.400;8.670;2023-06-22T17:13:59;2.85;;;2.20;;
12650;SDS011;6390;49.400;8.670;2023-06-22T17:16:26;2.83;;;2.20;;
12650;SDS011;6390;49.400;8.670;2023-06-22T17:18:56;2.97;;;2.10;;
12650;SDS011;6390;49.400;8.670;2023-06-22T17:21:23;2.53;;;2.20;;
12650;SDS011;6390;49.400;8.670;2023-06-22T17:23:49;2.75;;;1.92;;
12650;SDS011;6390;49.400;8.670;2023-06-22T17:26:16;5.32;;;2.03;;
12650;SDS011;6390;49.400;8.670;2023-06-22T17:28:48;3.05;;;1.90;;
12650;SDS011;6390;49.400;8.670;2023-06-22T17:31:17;2.72;;;2.00;;
12650;SDS011;6390;49.400;8.670;2023-06-22T17:33:45;2.60;;;2.08;;
12650;SDS011;6390;49.400;8.670;2023-06-22T17:36:15;2.53;;;1.98;;
12650;SDS011;6390;49.400;8.670;2023-06-22T17:38:41;2.88;;;1.80;;
12650;SDS011;6390;49.400;8.670;2023-06-22T17:41:07;2.13;;;1.92;;
12650;SDS011;6390;49.400;8.670;2023-06-22T17:43:43;2.30;;;1.90;;
12650;SDS011;6390;49.400;8.670;2023-06-22T17:46:12;3.65;;;1.88;;
12650;SDS011;6390;49.400;8.670;2023-06-22T17:48:42;4.22;;;2.17;;
12650;SDS011;6390;49.400;8.670;2023-06-22T17:51:12;5.18;;;1.83;;
12650;SDS011;6390;49.400;8.670;2023-06-22T17:53:40;3.58;;;2.28;;
12650;SDS011;6390;49.400;8.670;2023-06-22T17:56:13;4.43;;;1.80;;
12650;SDS011;6390;49.400;8.670;2023-06-22T17:58:40;2.88;;;2.00;;
12650;SDS011;6390;49.400;8.670;2023-06-22T18:01:31;3.92;;;1.90;;
12650;SDS011;6390;49.400;8.670;2023-06-22T18:04:10;3.65;;;2.00;;
12650;SDS011;6390;49.400;8.670;2023-06-22T18:06:42;2.05;;;1.60;;
12650;SDS011;6390;49.400;8.670;2023-06-22T18:09:14;3.25;;;1.70;;
12650;SDS011;6390;49.400;8.670;2023-06-22T18:11:43;3.20;;;1.63;;
12650;SDS011;6390;49.400;8.670;2023-06-22T18:14:13;3.47;;;1.85;;
12650;SDS011;6390;49.400;8.670;2023-06-22T18:16:43;3.70;;;1.50;;
12650;SDS011;6390;49.400;8.670;2023-06-22T18:19:14;2.80;;;1.80;;
12650;SDS011;6390;49.400;8.670;2023-06-22T18:21:44;2.50;;;1.55;;
12650;SDS011;6390;49.400;8.670;2023-06-22T18:24:13;2.45;;;1.70;;
12650;SDS011;6390;49.400;8.670;2023-06-22T18:26:43;2.45;;;1.90;;
12650;SDS011;6390;49.400;8.670;2023-06-22T18:29:10;2.88;;;1.48;;
12650;SDS011;6390;49.400;8.670;2023-06-22T18:31:38;2.20;;;1.60;;